createdAt,value
2023-01-19T00:01:41.895Z,1.30
2023-01-19T00:04:09.749Z,1.30
2023-01-19T00:06:37.508Z,1.26
2023-01-19T00:09:05.227Z,1.28
2023-01-19T00:11:32.989Z,1.30
2023-01-19T00:14:00.693Z,1.30
2023-01-19T00:16:30.567Z,1.30
2023-01-19T00:18:58.252Z,1.30
2023-01-19T00:21:26.209Z,1.20
2023-01-19T00:23:53.871Z,1.20
2023-01-19T00:26:22.357Z,1.14
2023-01-19T00:28:53.149Z,1.10
2023-01-19T00:31:21.712Z,1.16
2023-01-19T00:33:51.608Z,1.10
2023-01-19T00:36:19.925Z,1.20
2023-01-19T00:38:47.770Z,1.20
2023-01-19T00:41:15.745Z,1.20
2023-01-19T00:43:43.627Z,1.10
2023-01-19T00:46:11.415Z,1.10
2023-01-19T00:48:39.205Z,1.02
2023-01-19T00:51:06.876Z,1.00
2023-01-19T00:53:34.617Z,1.00
2023-01-19T00:56:04.886Z,1.00
2023-01-19T00:58:32.517Z,1.10
2023-01-19T01:01:04.850Z,1.12
2023-01-19T01:03:33.098Z,1.20
2023-01-19T01:06:00.959Z,1.12
2023-01-19T01:08:28.642Z,1.10
2023-01-19T01:10:57.108Z,1.00
2023-01-19T01:13:27.944Z,1.00
2023-01-19T01:15:57.188Z,1.00
2023-01-19T01:18:26.225Z,1.00
2023-01-19T01:21:01.773Z,0.98
2023-01-19T01:23:29.724Z,0.90
2023-01-19T01:25:57.507Z,0.94
2023-01-19T01:28:25.922Z,1.00
2023-01-19T01:30:57.167Z,1.00
2023-01-19T01:33:41.302Z,0.90
2023-01-19T01:36:12.254Z,0.90
2023-01-19T01:38:43.867Z,0.90
2023-01-19T01:41:12.393Z,0.90
2023-01-19T01:43:50.456Z,0.94
2023-01-19T01:46:20.179Z,1.00
2023-01-19T01:49:05.736Z,0.90
2023-01-19T01:51:52.027Z,0.90
2023-01-19T01:54:29.763Z,0.98
2023-01-19T01:57:03.640Z,1.00
2023-01-19T01:59:43.242Z,1.00
2023-01-19T02:02:38.015Z,0.90
2023-01-19T02:05:17.374Z,0.90
2023-01-19T02:08:26.328Z,0.90
2023-01-19T02:11:14.220Z,0.90
2023-01-19T02:13:47.066Z,0.90
2023-01-19T02:16:17.655Z,0.90
2023-01-19T02:18:46.666Z,1.00
2023-01-19T02:21:31.718Z,1.00
2023-01-19T02:24:02.907Z,0.90
2023-01-19T02:26:40.880Z,0.90
2023-01-19T02:29:14.678Z,0.90
2023-01-19T02:31:42.918Z,0.90
2023-01-19T02:34:15.361Z,0.90
2023-01-19T02:36:52.556Z,0.90
2023-01-19T02:39:36.733Z,1.00
2023-01-19T02:42:12.423Z,1.00
2023-01-19T02:44:45.212Z,0.98
2023-01-19T02:47:14.012Z,1.00
2023-01-19T02:49:41.951Z,0.90
2023-01-19T02:52:18.011Z,0.90
2023-01-19T02:55:09.832Z,0.90
2023-01-19T02:57:46.579Z,0.90
2023-01-19T03:00:25.306Z,0.92
2023-01-19T03:03:32.166Z,1.00
2023-01-19T03:06:15.369Z,0.98
2023-01-19T03:09:09.063Z,1.00
2023-01-19T03:11:45.547Z,1.00
2023-01-19T03:14:22.633Z,1.00
2023-01-19T03:17:01.531Z,1.00
2023-01-19T03:19:37.957Z,1.10
2023-01-19T03:22:13.722Z,1.10
2023-01-19T03:24:46.195Z,1.10
2023-01-19T03:27:32.168Z,1.20
2023-01-19T03:30:09.901Z,1.20
2023-01-19T03:32:51.742Z,1.30
2023-01-19T03:35:25.538Z,1.30
2023-01-19T03:37:58.171Z,1.30
2023-01-19T03:40:32.519Z,1.30
2023-01-19T03:43:03.618Z,1.30
2023-01-19T03:45:36.645Z,1.30
2023-01-19T03:48:05.946Z,1.32
2023-01-19T03:50:33.847Z,1.40
2023-01-19T03:53:14.150Z,1.50
2023-01-19T03:55:47.419Z,1.50
2023-01-19T03:58:15.262Z,1.50
2023-01-19T04:00:43.696Z,1.50
2023-01-19T04:03:15.955Z,1.50
2023-01-19T04:05:45.278Z,1.50
2023-01-19T04:08:13.541Z,1.50
2023-01-19T04:10:41.284Z,1.50
2023-01-19T04:13:09.082Z,1.50
2023-01-19T04:15:37.121Z,1.50
2023-01-19T04:18:05.438Z,1.50
2023-01-19T04:20:33.890Z,1.50
2023-01-19T04:23:02.117Z,1.50
2023-01-19T04:25:30.260Z,1.50
2023-01-19T04:27:58.445Z,1.50
2023-01-19T04:30:27.793Z,1.50
2023-01-19T04:32:56.276Z,1.50
2023-01-19T04:35:24.068Z,1.50
2023-01-19T04:37:51.869Z,1.60
2023-01-19T04:40:20.178Z,1.60
2023-01-19T04:42:47.961Z,1.60
2023-01-19T04:45:15.844Z,1.60
2023-01-19T04:47:43.551Z,1.60
2023-01-19T04:50:11.740Z,1.60
2023-01-19T04:52:39.574Z,1.52
2023-01-19T04:55:08.496Z,1.50
2023-01-19T04:57:36.188Z,1.60
2023-01-19T05:00:06.918Z,1.60
2023-01-19T05:02:35.107Z,1.60
2023-01-19T05:05:05.294Z,1.60
2023-01-19T05:07:32.904Z,1.60
2023-01-19T05:10:01.119Z,1.60
2023-01-19T05:12:28.847Z,1.60
2023-01-19T05:14:56.561Z,1.60
2023-01-19T05:17:24.398Z,1.60
2023-01-19T05:19:52.144Z,1.60
2023-01-19T05:22:20.181Z,1.60
2023-01-19T05:24:47.799Z,1.62
2023-01-19T05:27:15.445Z,1.60
2023-01-19T05:29:43.122Z,1.60
2023-01-19T05:32:11.084Z,1.52
2023-01-19T05:34:39.477Z,1.50
2023-01-19T05:37:07.329Z,1.52
2023-01-19T05:39:35.047Z,1.60
2023-01-19T05:42:02.830Z,1.60
2023-01-19T05:44:30.610Z,1.60
2023-01-19T05:46:58.495Z,1.60
2023-01-19T05:49:26.364Z,1.60
2023-01-19T05:51:54.128Z,1.60
2023-01-19T05:54:21.840Z,1.54
2023-01-19T05:56:51.617Z,1.50
2023-01-19T05:59:24.123Z,1.50
2023-01-19T06:01:53.659Z,1.54
2023-01-19T06:04:21.640Z,1.60
2023-01-19T06:06:50.755Z,1.60
2023-01-19T06:09:18.779Z,1.60
2023-01-19T06:11:47.420Z,1.60
2023-01-19T06:14:15.242Z,1.60
2023-01-19T06:16:43.033Z,1.60
2023-01-19T06:19:11.037Z,1.60
2023-01-19T06:21:38.683Z,1.62
2023-01-19T06:24:06.609Z,1.62
2023-01-19T06:26:34.377Z,1.62
2023-01-19T06:29:02.098Z,1.60
2023-01-19T06:31:29.946Z,1.60
2023-01-19T06:33:57.654Z,1.60
2023-01-19T06:36:25.508Z,1.58
2023-01-19T06:38:53.429Z,1.50
2023-01-19T06:41:21.101Z,1.50
2023-01-19T06:43:49.021Z,1.50
2023-01-19T06:46:16.754Z,1.52
2023-01-19T06:48:44.483Z,1.52
2023-01-19T06:51:12.751Z,1.50
2023-01-19T06:53:40.450Z,1.50
2023-01-19T06:56:09.712Z,1.50
2023-01-19T06:58:37.965Z,1.50
2023-01-19T07:01:07.225Z,1.50
2023-01-19T07:03:38.110Z,1.50
2023-01-19T07:06:09.210Z,1.50
2023-01-19T07:08:38.294Z,1.56
2023-01-19T07:11:26.102Z,1.60
2023-01-19T07:13:59.755Z,1.60
2023-01-19T07:16:27.569Z,1.52
2023-01-19T07:18:55.867Z,1.60
2023-01-19T07:21:23.863Z,1.58
2023-01-19T07:23:52.878Z,1.52
2023-01-19T07:26:21.712Z,1.58
2023-01-19T07:28:50.672Z,1.52
2023-01-19T07:31:19.177Z,1.52
2023-01-19T07:33:47.352Z,1.60
2023-01-19T07:36:15.535Z,1.62
2023-01-19T07:38:43.353Z,1.60
2023-01-19T07:41:11.619Z,1.60
2023-01-19T07:43:39.396Z,1.60
2023-01-19T07:46:08.286Z,1.60
2023-01-19T07:48:36.200Z,1.60
2023-01-19T07:51:11.038Z,1.60
2023-01-19T07:53:41.930Z,1.64
2023-01-19T07:56:10.783Z,1.70
2023-01-19T07:58:39.875Z,1.70
2023-01-19T08:01:13.590Z,1.76
2023-01-19T08:03:41.417Z,1.80
2023-01-19T08:06:22.772Z,1.70
2023-01-19T08:08:51.095Z,1.70
2023-01-19T08:11:18.758Z,1.70
2023-01-19T08:13:46.756Z,1.60
2023-01-19T08:16:14.384Z,1.54
2023-01-19T08:18:42.643Z,1.52
2023-01-19T08:21:10.354Z,1.60
2023-01-19T08:23:38.259Z,1.60
2023-01-19T08:26:30.425Z,1.60
2023-01-19T08:29:02.337Z,1.70
2023-01-19T08:31:30.741Z,1.70
2023-01-19T08:33:58.891Z,1.70
2023-01-19T08:36:27.401Z,1.64
2023-01-19T08:38:55.114Z,1.64
2023-01-19T08:41:23.092Z,1.62
2023-01-19T08:43:50.799Z,1.62
2023-01-19T08:46:21.347Z,1.60
2023-01-19T08:48:50.287Z,1.60
2023-01-19T08:51:18.944Z,1.60
2023-01-19T08:53:48.890Z,1.60
2023-01-19T08:56:18.044Z,1.60
2023-01-19T08:58:53.613Z,1.60
2023-01-19T09:01:31.152Z,1.60
2023-01-19T09:03:59.116Z,1.58
2023-01-19T09:06:28.139Z,1.60
2023-01-19T09:08:55.886Z,1.60
2023-01-19T09:11:23.594Z,1.70
2023-01-19T09:13:51.567Z,1.70
2023-01-19T09:16:19.335Z,1.70
2023-01-19T09:18:47.263Z,1.70
2023-01-19T09:21:16.263Z,1.70
2023-01-19T09:23:44.605Z,1.70
2023-01-19T09:26:12.373Z,1.70
2023-01-19T09:28:40.286Z,1.70
2023-01-19T09:31:09.524Z,1.70
2023-01-19T09:33:37.608Z,1.70
2023-01-19T09:36:05.728Z,1.70
2023-01-19T09:38:34.043Z,1.72
2023-01-19T09:41:01.910Z,1.70
2023-01-19T09:43:47.772Z,1.70
2023-01-19T09:46:39.787Z,1.70
2023-01-19T09:49:23.332Z,1.60
2023-01-19T09:51:51.468Z,1.60
2023-01-19T09:54:45.619Z,1.60
2023-01-19T09:57:14.982Z,1.60
2023-01-19T09:59:43.927Z,1.70
2023-01-19T10:02:46.569Z,1.70
2023-01-19T10:05:35.691Z,1.70
2023-01-19T10:08:27.895Z,1.70
2023-01-19T10:10:58.899Z,1.70
2023-01-19T10:13:51.797Z,1.70
2023-01-19T10:16:31.563Z,1.80
2023-01-19T10:19:38.171Z,1.80
2023-01-19T10:22:28.504Z,1.80
2023-01-19T10:25:01.768Z,1.80
2023-01-19T10:27:35.582Z,1.74
2023-01-19T10:30:04.135Z,1.74
2023-01-19T10:32:35.939Z,1.70
2023-01-19T10:35:21.877Z,1.80
2023-01-19T10:37:58.348Z,1.80
2023-01-19T10:40:37.869Z,1.88
2023-01-19T10:43:43.513Z,1.90
2023-01-19T10:46:34.391Z,1.90
2023-01-19T10:49:02.696Z,1.90
2023-01-19T10:51:30.742Z,1.90
2023-01-19T10:54:04.532Z,1.90
2023-01-19T10:56:38.561Z,1.82
2023-01-19T10:59:07.446Z,1.88
2023-01-19T11:01:37.368Z,1.90
2023-01-19T11:04:29.858Z,1.90
2023-01-19T11:07:21.389Z,1.90
2023-01-19T11:09:50.218Z,1.90
2023-01-19T11:12:24.026Z,1.90
2023-01-19T11:14:53.624Z,1.84
2023-01-19T11:17:25.851Z,1.88
2023-01-19T11:20:02.232Z,1.84
2023-01-19T11:22:33.930Z,1.90
2023-01-19T11:25:04.868Z,1.90
2023-01-19T11:27:37.776Z,1.90
2023-01-19T11:30:17.461Z,1.98
2023-01-19T11:32:47.052Z,2.00
2023-01-19T11:35:38.965Z,2.00
2023-01-19T11:38:13.292Z,2.00
2023-01-19T11:40:50.839Z,1.90
2023-01-19T11:43:22.204Z,1.90
2023-01-19T11:45:49.967Z,1.90
2023-01-19T11:48:36.706Z,1.90
2023-01-19T11:51:13.315Z,1.92
2023-01-19T11:53:49.373Z,2.00
2023-01-19T11:56:21.997Z,1.90
2023-01-19T11:58:50.253Z,1.90
2023-01-19T12:01:34.102Z,1.90
2023-01-19T12:04:14.912Z,1.90
2023-01-19T12:06:54.975Z,2.00
2023-01-19T12:09:31.161Z,2.00
2023-01-19T12:12:07.948Z,2.00
2023-01-19T12:14:54.865Z,2.00
2023-01-19T12:17:45.000Z,2.00
2023-01-19T12:20:31.343Z,2.00
2023-01-19T12:23:16.176Z,1.94
2023-01-19T12:26:44.610Z,2.00
2023-01-19T12:29:17.368Z,2.00
2023-01-19T12:31:45.581Z,1.90
2023-01-19T12:34:47.822Z,1.90
2023-01-19T12:37:28.757Z,1.90
2023-01-19T12:40:01.786Z,1.88
2023-01-19T12:42:30.019Z,1.80
2023-01-19T12:45:14.720Z,1.80
2023-01-19T12:47:53.099Z,1.80
2023-01-19T12:50:25.878Z,1.80
2023-01-19T12:52:58.626Z,1.80
2023-01-19T12:55:31.181Z,1.80
2023-01-19T12:58:17.712Z,1.80
2023-01-19T13:00:49.666Z,1.80
2023-01-19T13:03:26.983Z,1.80
2023-01-19T13:05:56.745Z,1.80
2023-01-19T13:08:29.795Z,1.80
2023-01-19T13:11:00.534Z,1.80
2023-01-19T13:13:40.111Z,1.80
2023-01-19T13:16:20.839Z,1.80
2023-01-19T13:18:57.151Z,1.80
2023-01-19T13:21:30.982Z,1.80
2023-01-19T13:24:04.954Z,1.74
2023-01-19T13:26:41.394Z,1.70
2023-01-19T13:29:34.040Z,1.80
2023-01-19T13:32:25.648Z,1.80
2023-01-19T13:35:01.984Z,1.80
2023-01-19T13:37:41.812Z,1.90
2023-01-19T13:40:21.779Z,1.90
2023-01-19T13:42:53.038Z,1.90
2023-01-19T13:45:33.780Z,1.90
2023-01-19T13:48:07.804Z,1.90
2023-01-19T13:50:39.376Z,1.90
2023-01-19T13:53:24.209Z,1.90
2023-01-19T13:56:17.469Z,1.90
2023-01-19T13:59:17.401Z,1.92
2023-01-19T14:01:47.323Z,2.00
2023-01-19T14:04:34.593Z,2.00
2023-01-19T14:07:15.167Z,1.90
2023-01-19T14:09:44.928Z,1.90
2023-01-19T14:12:17.548Z,1.90
2023-01-19T14:14:49.511Z,1.88
2023-01-19T14:17:37.480Z,1.90
2023-01-19T14:20:06.457Z,1.90
2023-01-19T14:22:41.844Z,2.00
2023-01-19T14:25:32.496Z,2.10
2023-01-19T14:28:29.179Z,2.10
2023-01-19T14:31:01.511Z,2.10
2023-01-19T14:33:41.763Z,2.10
2023-01-19T14:36:39.364Z,2.10
2023-01-19T14:39:23.196Z,2.10
2023-01-19T14:41:53.406Z,2.10
2023-01-19T14:44:40.065Z,2.10
2023-01-19T14:47:29.444Z,2.20
2023-01-19T14:50:07.570Z,2.20
2023-01-19T14:52:41.677Z,2.20
2023-01-19T14:55:49.277Z,2.20
2023-01-19T14:58:21.350Z,2.20
2023-01-19T15:01:01.884Z,2.20
2023-01-19T15:03:43.370Z,2.20
2023-01-19T15:06:20.977Z,2.20
2023-01-19T15:08:50.405Z,2.20
2023-01-19T15:11:26.650Z,2.20
2023-01-19T15:13:55.463Z,2.22
2023-01-19T15:16:24.209Z,2.30
2023-01-19T15:18:52.546Z,2.30
2023-01-19T15:21:26.588Z,2.30
2023-01-19T15:23:55.307Z,2.32
2023-01-19T15:26:26.164Z,2.30
2023-01-19T15:28:56.129Z,2.30
2023-01-19T15:31:26.474Z,2.20
2023-01-19T15:33:54.408Z,2.20
2023-01-19T15:36:25.014Z,2.20
2023-01-19T15:38:53.189Z,2.20
2023-01-19T15:41:26.380Z,2.20
2023-01-19T15:43:54.488Z,2.20
2023-01-19T15:46:25.557Z,2.14
2023-01-19T15:48:54.488Z,2.10
2023-01-19T15:51:25.933Z,2.10
2023-01-19T15:53:55.149Z,2.10
2023-01-19T15:56:31.389Z,2.10
2023-01-19T15:58:59.748Z,2.10
2023-01-19T16:01:33.812Z,2.10
2023-01-19T16:04:06.815Z,2.12
2023-01-19T16:06:34.669Z,2.20
2023-01-19T16:09:03.870Z,2.20
2023-01-19T16:11:34.429Z,2.20
2023-01-19T16:14:02.565Z,2.20
2023-01-19T16:16:30.460Z,2.10
2023-01-19T16:18:58.412Z,2.10
2023-01-19T16:21:26.928Z,2.10
2023-01-19T16:23:54.648Z,2.14
2023-01-19T16:26:34.225Z,2.20
2023-01-19T16:29:10.808Z,2.20
2023-01-19T16:31:41.114Z,2.30
2023-01-19T16:34:10.213Z,2.30
2023-01-19T16:36:41.121Z,2.30
2023-01-19T16:39:13.638Z,2.20
2023-01-19T16:41:43.226Z,2.20
2023-01-19T16:44:16.757Z,2.10
2023-01-19T16:46:49.658Z,2.10
2023-01-19T16:49:24.272Z,2.10
2023-01-19T16:51:54.903Z,2.14
2023-01-19T16:54:28.065Z,2.12
2023-01-19T16:56:58.209Z,2.10
2023-01-19T16:59:27.214Z,2.10
2023-01-19T17:01:55.910Z,2.10
2023-01-19T17:04:26.492Z,2.10
2023-01-19T17:06:55.636Z,2.02
2023-01-19T17:09:23.365Z,2.04
2023-01-19T17:11:51.135Z,2.00
2023-01-19T17:14:22.936Z,2.00
2023-01-19T17:16:50.860Z,2.06
2023-01-19T17:19:22.061Z,2.10
2023-01-19T17:21:50.369Z,2.10
2023-01-19T17:24:20.893Z,2.06
2023-01-19T17:26:48.844Z,2.00
2023-01-19T17:29:17.583Z,2.00
2023-01-19T17:31:46.738Z,1.90
2023-01-19T17:34:14.517Z,1.90
2023-01-19T17:36:42.340Z,1.90
2023-01-19T17:39:14.874Z,1.90
2023-01-19T17:41:42.738Z,1.90
2023-01-19T17:44:10.594Z,2.00
2023-01-19T17:46:39.233Z,2.00
2023-01-19T17:49:08.352Z,2.00
2023-01-19T17:51:36.429Z,2.00
2023-01-19T17:54:04.742Z,2.06
2023-01-19T17:56:36.792Z,2.10
2023-01-19T17:59:07.749Z,2.10
2023-01-19T18:01:39.826Z,2.10
2023-01-19T18:04:08.981Z,2.10
2023-01-19T18:06:38.201Z,2.16
2023-01-19T18:09:07.494Z,2.20
2023-01-19T18:11:35.833Z,2.10
2023-01-19T18:14:05.487Z,2.18
2023-01-19T18:16:33.386Z,2.10
2023-01-19T18:19:01.311Z,2.10
2023-01-19T18:21:30.553Z,2.10
2023-01-19T18:24:02.299Z,2.10
2023-01-19T18:26:33.052Z,2.10
2023-01-19T18:29:01.439Z,2.16
2023-01-19T18:31:30.224Z,2.18
2023-01-19T18:33:58.293Z,2.20
2023-01-19T18:36:28.462Z,2.20
2023-01-19T18:38:56.489Z,2.20
2023-01-19T18:41:24.488Z,2.20
2023-01-19T18:43:56.432Z,2.16
2023-01-19T18:46:24.565Z,2.10
2023-01-19T18:48:53.089Z,2.10
2023-01-19T18:51:20.954Z,2.18
2023-01-19T18:53:48.827Z,2.14
2023-01-19T18:56:16.836Z,2.20
2023-01-19T18:58:45.404Z,2.18
2023-01-19T19:01:27.261Z,2.10
2023-01-19T19:03:56.861Z,2.10
2023-01-19T19:06:27.220Z,2.10
2023-01-19T19:08:59.202Z,2.14
2023-01-19T19:11:28.107Z,2.20
2023-01-19T19:13:59.995Z,2.20
2023-01-19T19:16:29.691Z,2.20
2023-01-19T19:18:59.104Z,2.20
2023-01-19T19:21:27.121Z,2.20
2023-01-19T19:23:57.346Z,2.20
2023-01-19T19:26:28.149Z,2.20
2023-01-19T19:28:56.362Z,2.20
2023-01-19T19:31:26.137Z,2.20
2023-01-19T19:33:56.101Z,2.20
2023-01-19T19:36:27.305Z,2.20
2023-01-19T19:38:55.076Z,2.14
2023-01-19T19:41:27.746Z,2.20
2023-01-19T19:43:56.072Z,2.20
2023-01-19T19:46:25.088Z,2.20
2023-01-19T19:48:54.279Z,2.20
2023-01-19T19:51:29.477Z,2.20
2023-01-19T19:54:00.688Z,2.20
2023-01-19T19:56:32.385Z,2.20
2023-01-19T19:59:00.785Z,2.20
2023-01-19T20:01:33.623Z,2.20
2023-01-19T20:04:11.961Z,2.20
2023-01-19T20:06:44.827Z,2.22
2023-01-19T20:09:14.296Z,2.26
2023-01-19T20:11:45.058Z,2.20
2023-01-19T20:14:16.051Z,2.20
2023-01-19T20:16:44.222Z,2.20
2023-01-19T20:19:11.908Z,2.20
2023-01-19T20:21:42.058Z,2.24
2023-01-19T20:24:20.477Z,2.30
2023-01-19T20:26:52.477Z,2.30
2023-01-19T20:29:20.644Z,2.26
2023-01-19T20:31:55.357Z,2.20
2023-01-19T20:34:32.095Z,2.20
2023-01-19T20:37:02.454Z,2.20
2023-01-19T20:39:33.295Z,2.20
2023-01-19T20:42:02.159Z,2.20
2023-01-19T20:44:30.262Z,2.20
2023-01-19T20:46:58.083Z,2.20
2023-01-19T20:49:28.296Z,2.20
2023-01-19T20:51:56.014Z,2.20
2023-01-19T20:54:27.950Z,2.20
2023-01-19T20:56:57.637Z,2.20
2023-01-19T20:59:26.103Z,2.18
2023-01-19T21:01:53.996Z,2.12
2023-01-19T21:04:22.401Z,2.10
2023-01-19T21:06:50.115Z,2.12
2023-01-19T21:09:18.628Z,2.20
2023-01-19T21:11:46.416Z,2.20
2023-01-19T21:14:14.233Z,2.20
2023-01-19T21:16:42.607Z,2.12
2023-01-19T21:19:10.524Z,2.10
2023-01-19T21:21:38.304Z,2.10
2023-01-19T21:24:06.304Z,2.10
2023-01-19T21:26:34.126Z,2.06
2023-01-19T21:29:04.028Z,2.00
2023-01-19T21:31:32.088Z,2.00
2023-01-19T21:33:59.985Z,2.08
2023-01-19T21:36:27.691Z,2.10
2023-01-19T21:39:00.543Z,2.10
2023-01-19T21:41:30.100Z,2.10
2023-01-19T21:43:59.984Z,2.10
2023-01-19T21:46:33.034Z,2.10
2023-01-19T21:49:04.711Z,2.00
2023-01-19T21:51:37.015Z,2.00
2023-01-19T21:54:06.640Z,2.00
2023-01-19T21:56:37.860Z,2.02
2023-01-19T21:59:06.121Z,2.10
2023-01-19T22:01:34.977Z,2.10
2023-01-19T22:04:02.899Z,2.10
2023-01-19T22:06:30.586Z,2.18
2023-01-19T22:08:58.411Z,2.14
2023-01-19T22:11:26.697Z,2.18
2023-01-19T22:13:54.660Z,2.10
2023-01-19T22:16:23.985Z,2.10
2023-01-19T22:18:59.271Z,2.10
2023-01-19T22:21:31.721Z,2.10
2023-01-19T22:24:04.178Z,2.12
2023-01-19T22:26:34.158Z,2.12
2023-01-19T22:29:04.557Z,2.10
2023-01-19T22:31:32.716Z,2.10
2023-01-19T22:34:00.580Z,2.10
2023-01-19T22:36:31.832Z,2.10
2023-01-19T22:39:11.904Z,2.10
2023-01-19T22:41:45.129Z,2.10
2023-01-19T22:44:21.038Z,2.10
2023-01-19T22:46:53.542Z,2.10
2023-01-19T22:49:21.275Z,2.10
2023-01-19T22:51:52.575Z,2.10
2023-01-19T22:54:23.016Z,2.00
2023-01-19T22:56:50.703Z,2.00
2023-01-19T22:59:18.437Z,2.00
2023-01-19T23:01:47.216Z,1.90
2023-01-19T23:04:16.044Z,1.90
2023-01-19T23:06:46.949Z,1.90
2023-01-19T23:09:15.956Z,1.90
2023-01-19T23:11:51.230Z,1.90
2023-01-19T23:14:22.087Z,1.92
2023-01-19T23:16:49.925Z,1.90
2023-01-19T23:19:18.204Z,1.90
2023-01-19T23:21:46.197Z,1.88
2023-01-19T23:24:14.046Z,1.84
2023-01-19T23:26:41.860Z,1.80
2023-01-19T23:29:15.581Z,1.80
2023-01-19T23:31:49.652Z,1.88
2023-01-19T23:34:17.948Z,1.90
2023-01-19T23:36:45.748Z,1.90
2023-01-19T23:39:21.008Z,1.90
2023-01-19T23:41:49.554Z,1.90
2023-01-19T23:44:18.201Z,1.80
2023-01-19T23:46:46.483Z,1.80
2023-01-19T23:49:14.367Z,1.80
2023-01-19T23:51:42.438Z,1.80
2023-01-19T23:54:12.289Z,1.80
2023-01-19T23:56:40.196Z,1.80
2023-01-19T23:59:14.287Z,1.80
